createdAt,value
2022-10-01T00:00:00.404Z,33.9
2022-10-01T00:01:01.352Z,33.6
2022-10-01T00:02:00.403Z,33.6
2022-10-01T00:03:00.540Z,33.6
2022-10-01T00:04:00.329Z,33.6
2022-10-01T00:05:00.241Z,33.6
2022-10-01T00:06:02.765Z,31.9
2022-10-01T00:07:00.234Z,31.9
2022-10-01T00:08:00.225Z,31.9
2022-10-01T00:09:00.282Z,31.9
2022-10-01T00:10:00.214Z,31.9
2022-10-01T00:11:00.258Z,34.8
2022-10-01T00:12:00.259Z,34.8
2022-10-01T00:13:00.236Z,34.8
2022-10-01T00:14:00.227Z,34.8
2022-10-01T00:15:04.368Z,34.8
2022-10-01T00:16:03.744Z,35.0
2022-10-01T00:17:00.440Z,35.0
2022-10-01T00:18:00.251Z,35.0
2022-10-01T00:19:00.611Z,35.0
2022-10-01T00:20:00.833Z,35.0
2022-10-01T00:21:03.943Z,35.4
2022-10-01T00:22:00.232Z,35.4
2022-10-01T00:23:00.244Z,35.4
2022-10-01T00:24:03.168Z,35.4
2022-10-01T00:25:00.239Z,35.4
2022-10-01T00:26:09.884Z,34.4
2022-10-01T00:27:00.227Z,34.4
2022-10-01T00:28:00.435Z,34.4
2022-10-01T00:29:03.449Z,34.4
2022-10-01T00:30:00.612Z,34.4
2022-10-01T00:31:00.242Z,34.3
2022-10-01T00:32:00.375Z,34.3
2022-10-01T00:33:00.260Z,34.3
2022-10-01T00:34:01.072Z,34.3
2022-10-01T00:35:00.600Z,34.3
2022-10-01T00:36:00.518Z,36.3
2022-10-01T00:37:00.252Z,36.3
2022-10-01T00:38:00.259Z,36.3
2022-10-01T00:39:00.857Z,36.3
2022-10-01T00:40:00.410Z,36.3
2022-10-01T00:41:00.504Z,36.5
2022-10-01T00:42:00.223Z,36.5
2022-10-01T00:43:00.291Z,36.5
2022-10-01T00:44:11.887Z,36.5
2022-10-01T00:45:00.228Z,36.5
2022-10-01T00:46:08.053Z,36.9
2022-10-01T00:47:06.881Z,36.9
2022-10-01T00:48:00.415Z,36.9
2022-10-01T00:49:05.522Z,36.9
2022-10-01T00:50:04.402Z,36.9
2022-10-01T00:51:00.652Z,37.2
2022-10-01T00:52:04.943Z,37.2
2022-10-01T00:53:03.955Z,37.2
2022-10-01T00:54:07.382Z,37.2
2022-10-01T00:55:07.029Z,37.2
2022-10-01T00:56:00.482Z,45.6
2022-10-01T00:57:02.868Z,45.6
2022-10-01T00:58:00.245Z,45.6
2022-10-01T00:59:00.949Z,45.6
2022-10-01T01:00:04.762Z,45.6
2022-10-01T01:01:00.387Z,35.5
2022-10-01T01:02:00.313Z,35.5
2022-10-01T01:03:00.287Z,35.5
2022-10-01T01:04:00.349Z,35.5
2022-10-01T01:05:00.777Z,35.5
2022-10-01T01:06:00.265Z,35.5
2022-10-01T01:07:02.894Z,35.5
2022-10-01T01:08:01.163Z,35.5
2022-10-01T01:09:00.255Z,35.5
2022-10-01T01:10:01.411Z,35.5
2022-10-01T01:11:09.145Z,37.2
2022-10-01T01:12:20.130Z,37.2
2022-10-01T01:13:12.170Z,37.2
2022-10-01T01:14:09.212Z,37.2
2022-10-01T01:15:10.187Z,37.2
2022-10-01T01:16:12.370Z,36.3
2022-10-01T01:17:06.554Z,36.3
2022-10-01T01:18:14.455Z,36.3
2022-10-01T01:19:08.067Z,36.3
2022-10-01T01:20:08.050Z,36.3
2022-10-01T01:21:16.441Z,40.0
2022-10-01T01:22:05.479Z,40.0
2022-10-01T01:23:07.582Z,40.0
2022-10-01T01:24:20.135Z,40.0
2022-10-01T01:25:13.619Z,40.0
2022-10-01T01:26:11.967Z,38.1
2022-10-01T01:27:20.152Z,38.1
2022-10-01T01:28:16.428Z,38.1
2022-10-01T01:29:05.985Z,38.1
2022-10-01T01:30:02.000Z,38.1
2022-10-01T01:31:05.639Z,39.6
2022-10-01T01:32:11.428Z,39.6
2022-10-01T01:33:05.194Z,39.6
2022-10-01T01:34:04.669Z,39.6
2022-10-01T01:35:04.499Z,39.6
2022-10-01T01:36:04.998Z,38.0
2022-10-01T01:37:05.194Z,38.0
2022-10-01T01:38:06.000Z,38.0
2022-10-01T01:39:04.002Z,38.0
2022-10-01T01:40:02.382Z,38.0
2022-10-01T01:41:01.977Z,38.5
2022-10-01T01:42:05.278Z,38.5
2022-10-01T01:43:04.445Z,38.5
2022-10-01T01:44:03.658Z,38.5
2022-10-01T01:45:01.461Z,38.5
2022-10-01T01:46:04.268Z,38.0
2022-10-01T01:47:02.741Z,38.0
2022-10-01T01:48:01.407Z,38.0
2022-10-01T01:49:01.962Z,38.0
2022-10-01T01:50:01.887Z,38.0
2022-10-01T01:51:07.219Z,39.8
2022-10-01T01:52:11.686Z,39.8
2022-10-01T01:53:00.294Z,39.8
2022-10-01T01:54:00.539Z,39.8
2022-10-01T01:55:01.067Z,39.8
2022-10-01T01:56:00.635Z,39.9
2022-10-01T01:57:01.158Z,39.9
2022-10-01T01:58:00.232Z,39.9
2022-10-01T01:59:01.827Z,39.9
2022-10-01T02:00:00.632Z,39.9
2022-10-01T02:01:01.258Z,39.6
2022-10-01T02:02:00.583Z,39.6
2022-10-01T02:03:00.742Z,39.6
2022-10-01T02:04:04.457Z,39.6
2022-10-01T02:05:05.505Z,39.6
2022-10-01T02:06:17.857Z,40.4
2022-10-01T02:07:12.185Z,40.4
2022-10-01T02:08:07.604Z,40.4
2022-10-01T02:09:08.206Z,40.4
2022-10-01T02:10:10.853Z,40.4
2022-10-01T02:11:11.985Z,41.6
2022-10-01T02:12:19.507Z,41.6
2022-10-01T02:13:13.203Z,41.6
2022-10-01T02:14:17.531Z,41.6
2022-10-01T02:15:08.459Z,41.6
2022-10-01T02:16:11.312Z,43.8
2022-10-01T02:17:15.347Z,43.8
2022-10-01T02:18:10.352Z,43.8
2022-10-01T02:19:04.866Z,43.8
2022-10-01T02:20:06.839Z,43.8
2022-10-01T02:21:11.295Z,41.5
2022-10-01T02:22:10.419Z,41.5
2022-10-01T02:23:06.069Z,41.5
2022-10-01T02:24:05.947Z,41.5
2022-10-01T02:25:03.764Z,41.5
2022-10-01T02:26:07.059Z,41.6
2022-10-01T02:27:05.265Z,41.6
2022-10-01T02:28:07.119Z,41.6
2022-10-01T02:29:05.068Z,41.6
2022-10-01T02:30:05.034Z,41.6
2022-10-01T02:31:02.068Z,44.5
2022-10-01T02:32:01.339Z,44.5
2022-10-01T02:33:02.976Z,44.5
2022-10-01T02:34:02.416Z,44.5
2022-10-01T02:35:01.696Z,44.5
2022-10-01T02:36:03.678Z,41.7
2022-10-01T02:37:03.222Z,41.7
2022-10-01T02:38:04.809Z,41.7
2022-10-01T02:39:01.847Z,41.7
2022-10-01T02:40:04.177Z,41.7
2022-10-01T02:41:04.673Z,44.6
2022-10-01T02:42:02.978Z,44.6
2022-10-01T02:43:05.897Z,44.6
2022-10-01T02:44:05.776Z,44.6
2022-10-01T02:45:02.908Z,44.6
2022-10-01T02:46:07.336Z,52.0
2022-10-01T02:47:06.683Z,52.0
2022-10-01T02:48:04.839Z,52.0
2022-10-01T02:49:00.249Z,52.0
2022-10-01T02:50:02.597Z,52.0
2022-10-01T02:51:17.647Z,47.6
2022-10-01T02:52:06.737Z,47.6
2022-10-01T02:53:12.410Z,47.6
2022-10-01T02:54:07.156Z,47.6
2022-10-01T02:55:07.806Z,47.6
2022-10-01T02:56:02.199Z,46.8
2022-10-01T02:57:00.487Z,46.8
2022-10-01T02:58:00.496Z,46.8
2022-10-01T02:59:00.227Z,46.8
2022-10-01T03:00:04.254Z,46.8
2022-10-01T03:01:00.243Z,48.4
2022-10-01T03:02:00.360Z,48.4
2022-10-01T03:03:00.319Z,48.4
2022-10-01T03:04:00.383Z,48.4
2022-10-01T03:05:00.628Z,48.4
2022-10-01T03:06:00.476Z,47.7
2022-10-01T03:07:00.254Z,47.7
2022-10-01T03:08:00.382Z,47.7
2022-10-01T03:09:00.294Z,47.7
2022-10-01T03:10:01.820Z,47.7
2022-10-01T03:11:00.223Z,46.0
2022-10-01T03:12:00.538Z,46.0
2022-10-01T03:13:00.249Z,46.0
2022-10-01T03:14:00.250Z,46.0
2022-10-01T03:15:00.509Z,46.0
2022-10-01T03:16:00.489Z,46.3
2022-10-01T03:17:00.212Z,46.3
2022-10-01T03:18:00.237Z,46.3
2022-10-01T03:19:00.254Z,46.3
2022-10-01T03:20:00.429Z,46.3
2022-10-01T03:21:00.235Z,42.8
2022-10-01T03:22:00.373Z,42.8
2022-10-01T03:23:00.247Z,42.8
2022-10-01T03:24:00.292Z,42.8
2022-10-01T03:25:00.225Z,42.8
2022-10-01T03:26:00.334Z,44.6
2022-10-01T03:27:00.337Z,44.6
2022-10-01T03:28:00.433Z,44.6
2022-10-01T03:29:00.549Z,44.6
2022-10-01T03:30:00.254Z,44.6
2022-10-01T03:31:09.125Z,41.9
2022-10-01T03:32:00.263Z,41.9
2022-10-01T03:33:00.427Z,41.9
2022-10-01T03:34:00.218Z,41.9
2022-10-01T03:35:00.235Z,41.9
2022-10-01T03:36:01.233Z,44.4
2022-10-01T03:37:00.273Z,44.4
2022-10-01T03:38:00.334Z,44.4
2022-10-01T03:39:00.240Z,44.4
2022-10-01T03:40:00.489Z,44.4
2022-10-01T03:41:00.294Z,48.3
2022-10-01T03:42:00.351Z,48.3
2022-10-01T03:43:05.336Z,48.3
2022-10-01T03:44:00.647Z,48.3
2022-10-01T03:45:00.224Z,48.3
2022-10-01T03:46:00.577Z,41.7
2022-10-01T03:47:00.351Z,41.7
2022-10-01T03:48:00.496Z,41.7
2022-10-01T03:49:00.317Z,41.7
2022-10-01T03:50:00.303Z,41.7
2022-10-01T03:51:00.234Z,45.6
2022-10-01T03:52:00.576Z,45.6
2022-10-01T03:53:00.227Z,45.6
2022-10-01T03:54:00.260Z,45.6
2022-10-01T03:55:00.256Z,45.6
2022-10-01T03:56:01.112Z,45.4
2022-10-01T03:57:00.243Z,45.4
2022-10-01T03:58:00.236Z,45.4
2022-10-01T03:59:00.739Z,45.4
2022-10-01T04:00:00.742Z,45.4
2022-10-01T04:01:00.248Z,45.0
2022-10-01T04:02:00.394Z,45.0
2022-10-01T04:03:00.288Z,45.0
2022-10-01T04:04:00.667Z,45.0
2022-10-01T04:05:00.367Z,45.0
2022-10-01T04:06:00.231Z,41.6
2022-10-01T04:07:00.227Z,41.6
2022-10-01T04:08:00.249Z,41.6
2022-10-01T04:09:00.522Z,41.6
2022-10-01T04:10:00.471Z,41.6
2022-10-01T04:11:00.361Z,40.0
2022-10-01T04:12:00.396Z,40.0
2022-10-01T04:13:00.426Z,40.0
2022-10-01T04:14:00.242Z,40.0
2022-10-01T04:15:00.232Z,40.0
2022-10-01T04:16:01.181Z,38.6
2022-10-01T04:17:00.214Z,38.6
2022-10-01T04:18:01.071Z,38.6
2022-10-01T04:19:00.984Z,38.6
2022-10-01T04:20:00.464Z,38.6
2022-10-01T04:21:00.324Z,46.3
2022-10-01T04:22:00.297Z,46.3
2022-10-01T04:23:00.898Z,46.3
2022-10-01T04:24:00.408Z,46.3
2022-10-01T04:25:00.242Z,46.3
2022-10-01T04:26:01.126Z,47.1
2022-10-01T04:27:00.225Z,47.1
2022-10-01T04:28:02.242Z,47.1
2022-10-01T04:29:00.226Z,47.1
2022-10-01T04:30:00.267Z,47.1
2022-10-01T04:31:00.248Z,45.2
2022-10-01T04:32:00.331Z,45.2
2022-10-01T04:33:01.102Z,45.2
2022-10-01T04:34:00.434Z,45.2
2022-10-01T04:35:00.726Z,45.2
2022-10-01T04:36:00.426Z,60.0
2022-10-01T04:37:00.212Z,60.0
2022-10-01T04:38:02.068Z,60.0
2022-10-01T04:39:02.551Z,60.0
2022-10-01T04:40:00.468Z,60.0
2022-10-01T04:41:00.319Z,45.9
2022-10-01T04:42:00.231Z,45.9
2022-10-01T04:43:01.025Z,45.9
2022-10-01T04:44:00.617Z,45.9
2022-10-01T04:45:00.219Z,45.9
2022-10-01T04:46:00.241Z,65.9
2022-10-01T04:47:00.557Z,65.9
2022-10-01T04:48:00.432Z,65.9
2022-10-01T04:49:00.228Z,65.9
2022-10-01T04:50:00.237Z,65.9
2022-10-01T04:51:00.293Z,43.2
2022-10-01T04:52:00.350Z,43.2
2022-10-01T04:53:00.223Z,43.2
2022-10-01T04:54:00.222Z,43.2
2022-10-01T04:55:00.253Z,43.2
2022-10-01T04:56:00.430Z,43.4
2022-10-01T04:57:00.259Z,43.4
2022-10-01T04:58:00.228Z,43.4
2022-10-01T04:59:00.288Z,43.4
2022-10-01T05:00:00.932Z,43.4
2022-10-01T05:01:02.164Z,41.8
2022-10-01T05:02:00.313Z,41.8
2022-10-01T05:03:00.243Z,41.8
2022-10-01T05:04:00.450Z,41.8
2022-10-01T05:05:00.796Z,41.8
2022-10-01T05:06:00.400Z,44.8
2022-10-01T05:07:00.241Z,44.8
2022-10-01T05:08:00.607Z,44.8
2022-10-01T05:09:00.272Z,44.8
2022-10-01T05:10:00.311Z,44.8
2022-10-01T05:11:00.233Z,42.8
2022-10-01T05:12:00.403Z,42.8
2022-10-01T05:13:00.263Z,42.8
2022-10-01T05:14:00.252Z,42.8
2022-10-01T05:15:00.273Z,42.8
2022-10-01T05:16:00.480Z,39.6
2022-10-01T05:17:00.222Z,39.6
2022-10-01T05:18:00.493Z,39.6
2022-10-01T05:19:00.224Z,39.6
2022-10-01T05:20:02.329Z,39.6
2022-10-01T05:21:04.642Z,36.5
2022-10-01T05:22:00.262Z,36.5
2022-10-01T05:23:00.206Z,36.5
2022-10-01T05:24:00.241Z,36.5
2022-10-01T05:25:00.469Z,36.5
2022-10-01T05:26:00.272Z,37.1
2022-10-01T05:27:00.507Z,37.1
2022-10-01T05:28:00.965Z,37.1
2022-10-01T05:29:00.300Z,37.1
2022-10-01T05:30:00.322Z,37.1
2022-10-01T05:31:01.180Z,39.0
2022-10-01T05:32:00.450Z,39.0
2022-10-01T05:33:04.303Z,39.0
2022-10-01T05:34:00.298Z,39.0
2022-10-01T05:35:00.222Z,39.0
2022-10-01T05:36:00.525Z,41.0
2022-10-01T05:37:01.053Z,41.0
2022-10-01T05:38:00.946Z,41.0
2022-10-01T05:39:00.433Z,41.0
2022-10-01T05:40:00.834Z,41.0
2022-10-01T05:41:00.219Z,32.9
2022-10-01T05:42:05.375Z,32.9
2022-10-01T05:43:00.713Z,32.9
2022-10-01T05:44:00.445Z,32.9
2022-10-01T05:45:00.314Z,32.9
2022-10-01T05:46:01.667Z,27.9
2022-10-01T05:47:00.218Z,27.9
2022-10-01T05:48:02.403Z,27.9
2022-10-01T05:49:00.287Z,27.9
2022-10-01T05:50:00.252Z,27.9
2022-10-01T05:51:00.231Z,31.1
2022-10-01T05:52:00.487Z,31.1
2022-10-01T05:53:01.443Z,31.1
2022-10-01T05:54:00.232Z,31.1
2022-10-01T05:55:00.250Z,30.9
2022-10-01T05:56:00.438Z,30.9
2022-10-01T05:57:00.224Z,30.9
2022-10-01T05:58:03.261Z,30.9
2022-10-01T05:59:00.277Z,30.9
2022-10-01T06:00:00.454Z,26.6
2022-10-01T06:01:00.217Z,26.6
2022-10-01T06:02:00.439Z,26.6
2022-10-01T06:03:01.833Z,26.6
2022-10-01T06:04:00.458Z,26.6
2022-10-01T06:05:00.231Z,22.6
2022-10-01T06:06:00.231Z,22.6
2022-10-01T06:07:00.220Z,22.6
2022-10-01T06:08:03.117Z,22.6
2022-10-01T06:09:00.284Z,22.6
2022-10-01T06:10:00.351Z,22.9
2022-10-01T06:11:01.468Z,22.9
2022-10-01T06:12:00.406Z,22.9
2022-10-01T06:13:00.253Z,22.9
2022-10-01T06:14:00.224Z,22.9
2022-10-01T06:15:00.230Z,20.0
2022-10-01T06:16:00.535Z,20.0
2022-10-01T06:17:00.222Z,20.0
2022-10-01T06:18:01.200Z,20.0
2022-10-01T06:19:00.283Z,20.0
2022-10-01T06:20:00.440Z,19.7
2022-10-01T06:21:00.238Z,19.7
2022-10-01T06:22:00.239Z,19.7
2022-10-01T06:23:00.273Z,19.7
2022-10-01T06:24:00.289Z,19.7
2022-10-01T06:25:00.230Z,18.6
2022-10-01T06:26:01.835Z,18.6
2022-10-01T06:27:00.224Z,18.6
2022-10-01T06:28:01.010Z,18.6
2022-10-01T06:29:00.261Z,18.6
2022-10-01T06:30:00.401Z,17.9
2022-10-01T06:31:01.304Z,17.9
2022-10-01T06:32:00.716Z,17.9
2022-10-01T06:33:02.832Z,17.9
2022-10-01T06:34:00.238Z,17.9
2022-10-01T06:35:00.269Z,17.2
2022-10-01T06:36:00.400Z,17.2
2022-10-01T06:37:00.374Z,17.2
2022-10-01T06:38:00.724Z,17.2
2022-10-01T06:39:00.347Z,17.2
2022-10-01T06:40:00.264Z,18.6
2022-10-01T06:41:01.583Z,18.6
2022-10-01T06:42:00.215Z,18.6
2022-10-01T06:43:00.221Z,18.6
2022-10-01T06:44:00.471Z,18.6
2022-10-01T06:45:00.238Z,17.5
2022-10-01T06:46:01.630Z,17.5
2022-10-01T06:47:00.284Z,17.5
2022-10-01T06:48:00.443Z,17.5
2022-10-01T06:49:00.222Z,17.5
2022-10-01T06:50:00.264Z,19.5
2022-10-01T06:51:00.228Z,19.5
2022-10-01T06:52:00.518Z,19.5
2022-10-01T06:53:00.831Z,19.5
2022-10-01T06:54:00.212Z,19.5
2022-10-01T06:55:00.235Z,19.2
2022-10-01T06:56:07.532Z,19.2
2022-10-01T06:57:00.223Z,19.2
2022-10-01T06:58:02.842Z,19.2
2022-10-01T06:59:00.209Z,19.2
2022-10-01T07:00:00.504Z,18.8
2022-10-01T07:01:01.873Z,18.8
2022-10-01T07:02:00.259Z,18.8
2022-10-01T07:03:00.800Z,18.8
2022-10-01T07:04:00.489Z,18.8
2022-10-01T07:05:00.226Z,16.0
2022-10-01T07:06:01.410Z,16.0
2022-10-01T07:07:00.217Z,16.0
2022-10-01T07:08:00.605Z,16.0
2022-10-01T07:09:00.249Z,16.0
2022-10-01T07:10:00.721Z,15.5
2022-10-01T07:11:01.210Z,15.5
2022-10-01T07:12:00.420Z,15.5
2022-10-01T07:13:11.455Z,15.5
2022-10-01T07:14:00.227Z,15.5
2022-10-01T07:15:00.464Z,14.8
2022-10-01T07:16:02.435Z,14.8
2022-10-01T07:17:00.225Z,14.8
2022-10-01T07:18:00.680Z,14.8
2022-10-01T07:19:00.230Z,14.8
2022-10-01T07:20:00.401Z,15.6
2022-10-01T07:21:00.230Z,15.6
2022-10-01T07:22:00.224Z,15.6
2022-10-01T07:23:01.077Z,15.6
2022-10-01T07:24:00.346Z,15.6
2022-10-01T07:25:00.266Z,14.9
2022-10-01T07:26:04.107Z,14.9
2022-10-01T07:27:05.046Z,14.9
2022-10-01T07:28:03.255Z,14.9
2022-10-01T07:29:00.386Z,14.9
2022-10-01T07:30:00.302Z,15.1
2022-10-01T07:31:00.205Z,15.1
2022-10-01T07:32:00.829Z,15.1
2022-10-01T07:33:00.222Z,15.1
2022-10-01T07:34:00.233Z,15.1
2022-10-01T07:35:00.649Z,14.2
2022-10-01T07:36:03.594Z,14.2
2022-10-01T07:37:00.533Z,14.2
2022-10-01T07:38:03.200Z,14.2
2022-10-01T07:39:00.235Z,14.2
2022-10-01T07:40:04.159Z,14.7
2022-10-01T07:41:01.292Z,14.7
2022-10-01T07:42:00.254Z,14.7
2022-10-01T07:43:00.239Z,14.7
2022-10-01T07:44:00.277Z,14.7
2022-10-01T07:45:00.266Z,15.2
2022-10-01T07:46:00.442Z,15.2
2022-10-01T07:47:00.257Z,15.2
2022-10-01T07:48:01.538Z,15.2
2022-10-01T07:49:00.229Z,15.2
2022-10-01T07:50:00.329Z,14.6
2022-10-01T07:51:00.232Z,14.6
2022-10-01T07:52:00.445Z,14.6
2022-10-01T07:53:00.323Z,14.6
2022-10-01T07:54:00.717Z,14.6
2022-10-01T07:55:00.311Z,14.7
2022-10-01T07:56:00.601Z,14.7
2022-10-01T07:57:00.238Z,14.7
2022-10-01T07:58:00.243Z,14.7
2022-10-01T07:59:00.539Z,14.7
2022-10-01T08:00:00.607Z,15.8
2022-10-01T08:01:03.533Z,15.8
2022-10-01T08:02:00.259Z,15.8
2022-10-01T08:03:00.605Z,15.8
2022-10-01T08:04:00.592Z,15.8
2022-10-01T08:05:00.221Z,15.2
2022-10-01T08:06:00.416Z,15.2
2022-10-01T08:07:00.296Z,15.2
2022-10-01T08:08:03.619Z,15.2
2022-10-01T08:09:00.225Z,15.2
2022-10-01T08:10:00.606Z,15.9
2022-10-01T08:11:01.421Z,15.9
2022-10-01T08:12:00.585Z,15.9
2022-10-01T08:13:02.802Z,15.9
2022-10-01T08:14:00.239Z,15.9
2022-10-01T08:15:00.469Z,15.3
2022-10-01T08:16:02.962Z,15.3
2022-10-01T08:17:00.314Z,15.3
2022-10-01T08:18:01.575Z,15.3
2022-10-01T08:19:00.207Z,15.3
2022-10-01T08:20:00.407Z,15.4
2022-10-01T08:21:00.674Z,15.4
2022-10-01T08:22:00.218Z,15.4
2022-10-01T08:23:01.963Z,15.4
2022-10-01T08:24:01.300Z,15.4
2022-10-01T08:25:00.262Z,14.9
2022-10-01T08:26:02.883Z,14.9
2022-10-01T08:27:00.232Z,14.9
2022-10-01T08:28:00.454Z,14.9
2022-10-01T08:29:00.518Z,14.9
2022-10-01T08:30:00.289Z,15.7
2022-10-01T08:31:05.771Z,15.7
2022-10-01T08:32:00.525Z,15.7
2022-10-01T08:33:00.754Z,15.7
2022-10-01T08:34:00.224Z,15.7
2022-10-01T08:35:00.282Z,15.9
2022-10-01T08:36:01.417Z,15.9
2022-10-01T08:37:00.456Z,15.9
2022-10-01T08:38:01.561Z,15.9
2022-10-01T08:39:00.212Z,15.9
2022-10-01T08:40:00.603Z,17.5
2022-10-01T08:41:18.275Z,17.5
2022-10-01T08:42:07.433Z,17.5
2022-10-01T08:43:04.375Z,17.5
2022-10-01T08:44:04.012Z,17.5
2022-10-01T08:45:05.441Z,17.8
2022-10-01T08:46:04.484Z,17.8
2022-10-01T08:47:07.275Z,17.8
2022-10-01T08:48:06.569Z,17.8
2022-10-01T08:49:16.476Z,17.8
2022-10-01T08:50:15.475Z,17.7
2022-10-01T08:51:09.280Z,17.7
2022-10-01T08:52:00.209Z,17.7
2022-10-01T08:53:05.591Z,17.7
2022-10-01T08:54:20.150Z,17.7
2022-10-01T08:55:09.174Z,16.7
2022-10-01T08:56:02.095Z,16.7
2022-10-01T08:57:03.779Z,16.7
2022-10-01T08:58:03.043Z,16.7
2022-10-01T08:59:12.839Z,16.7
2022-10-01T09:00:05.527Z,18.2
2022-10-01T09:01:00.262Z,18.2
2022-10-01T09:02:00.334Z,18.2
2022-10-01T09:03:04.879Z,18.2
2022-10-01T09:04:00.334Z,18.2
2022-10-01T09:05:09.322Z,17.3
2022-10-01T09:06:13.857Z,17.3
2022-10-01T09:07:19.011Z,17.3
2022-10-01T09:08:20.130Z,17.3
2022-10-01T09:09:20.130Z,17.3
2022-10-01T09:10:19.467Z,16.9
2022-10-01T09:11:05.978Z,16.9
2022-10-01T09:12:10.182Z,16.9
2022-10-01T09:13:17.808Z,16.9
2022-10-01T09:14:15.170Z,16.9
2022-10-01T09:15:10.736Z,15.0
2022-10-01T09:16:11.518Z,15.0
2022-10-01T09:17:08.844Z,15.0
2022-10-01T09:18:20.136Z,15.0
2022-10-01T09:19:13.311Z,15.0
2022-10-01T09:20:10.182Z,13.8
2022-10-01T09:21:00.313Z,13.8
2022-10-01T09:22:09.515Z,13.8
2022-10-01T09:23:18.577Z,13.8
2022-10-01T09:24:06.097Z,13.8
2022-10-01T09:25:10.843Z,13.2
2022-10-01T09:26:00.753Z,13.2
2022-10-01T09:27:00.320Z,13.2
2022-10-01T09:28:20.210Z,13.2
2022-10-01T09:29:01.971Z,13.2
2022-10-01T09:30:11.880Z,12.6
2022-10-01T09:31:15.402Z,12.6
2022-10-01T09:32:02.072Z,12.6
2022-10-01T09:33:08.521Z,12.6
2022-10-01T09:34:05.390Z,12.6
2022-10-01T09:35:06.761Z,13.3
2022-10-01T09:36:11.984Z,13.3
2022-10-01T09:37:18.016Z,13.3
2022-10-01T09:38:08.181Z,13.3
2022-10-01T09:39:14.192Z,13.3
2022-10-01T09:40:13.885Z,12.3
2022-10-01T09:41:01.009Z,12.3
2022-10-01T09:42:00.322Z,12.3
2022-10-01T09:43:03.567Z,12.3
2022-10-01T09:44:00.335Z,12.3
2022-10-01T09:45:00.544Z,11.6
2022-10-01T09:46:02.767Z,11.6
2022-10-01T09:47:00.242Z,11.6
2022-10-01T09:48:12.837Z,11.6
2022-10-01T09:49:08.906Z,11.6
2022-10-01T09:50:03.718Z,11.2
2022-10-01T09:51:09.360Z,11.2
2022-10-01T09:52:04.873Z,11.2
2022-10-01T09:53:01.213Z,11.2
2022-10-01T09:54:06.181Z,11.2
2022-10-01T09:55:09.750Z,11.3
2022-10-01T09:56:08.176Z,11.3
2022-10-01T09:57:08.354Z,11.3
2022-10-01T09:58:12.298Z,11.3
2022-10-01T09:59:05.436Z,11.3
2022-10-01T10:00:08.929Z,10.8
2022-10-01T10:01:00.348Z,10.8
2022-10-01T10:02:02.607Z,10.8
2022-10-01T10:03:00.562Z,10.8
2022-10-01T10:04:00.237Z,10.8
2022-10-01T10:05:06.905Z,10.3
2022-10-01T10:06:00.546Z,10.3
2022-10-01T10:07:02.815Z,10.3
2022-10-01T10:08:09.944Z,10.3
2022-10-01T10:09:00.854Z,10.3
2022-10-01T10:10:15.278Z,11.1
2022-10-01T10:11:03.541Z,11.1
2022-10-01T10:12:01.418Z,11.1
2022-10-01T10:13:06.306Z,11.1
2022-10-01T10:14:01.502Z,11.1
2022-10-01T10:15:07.463Z,10.3
2022-10-01T10:16:07.287Z,10.3
2022-10-01T10:17:05.646Z,10.3
2022-10-01T10:18:11.695Z,10.3
2022-10-01T10:19:04.079Z,10.3
2022-10-01T10:20:00.494Z,11.8
2022-10-01T10:21:05.703Z,11.8
2022-10-01T10:22:11.428Z,11.8
2022-10-01T10:23:15.372Z,11.8
2022-10-01T10:24:03.145Z,11.8
2022-10-01T10:25:11.237Z,9.8
2022-10-01T10:26:03.575Z,9.8
2022-10-01T10:27:03.584Z,9.8
2022-10-01T10:28:00.318Z,9.8
2022-10-01T10:29:02.323Z,9.8
2022-10-01T10:30:04.907Z,10.6
2022-10-01T10:31:00.438Z,10.6
2022-10-01T10:32:05.935Z,10.6
2022-10-01T10:33:04.579Z,10.6
2022-10-01T10:34:15.152Z,10.6
2022-10-01T10:35:06.826Z,10.9
2022-10-01T10:36:03.707Z,10.9
2022-10-01T10:37:03.418Z,10.9
2022-10-01T10:38:00.282Z,10.9
2022-10-01T10:39:02.149Z,10.9
2022-10-01T10:40:01.430Z,10.3
2022-10-01T10:41:01.204Z,10.3
2022-10-01T10:42:01.731Z,10.3
2022-10-01T10:43:00.586Z,10.3
2022-10-01T10:44:05.062Z,10.3
2022-10-01T10:45:02.197Z,9.5
2022-10-01T10:46:01.082Z,9.5
2022-10-01T10:47:03.891Z,9.5
2022-10-01T10:48:03.337Z,9.5
2022-10-01T10:49:14.486Z,9.5
2022-10-01T10:50:03.932Z,9.1
2022-10-01T10:51:03.093Z,9.1
2022-10-01T10:52:00.932Z,9.1
2022-10-01T10:53:20.132Z,9.1
2022-10-01T10:54:01.097Z,9.1
2022-10-01T10:55:11.248Z,10.9
2022-10-01T10:56:02.820Z,10.9
2022-10-01T10:57:20.139Z,10.9
2022-10-01T10:58:09.405Z,10.9
2022-10-01T10:59:06.008Z,10.9
2022-10-01T11:00:03.919Z,10.8
2022-10-01T11:01:06.341Z,10.8
2022-10-01T11:02:03.587Z,10.8
2022-10-01T11:03:04.215Z,10.8
2022-10-01T11:04:00.524Z,10.8
2022-10-01T11:05:16.133Z,8.0
2022-10-01T11:06:08.872Z,8.0
2022-10-01T11:07:00.279Z,8.0
2022-10-01T11:08:03.937Z,8.0
2022-10-01T11:09:09.050Z,8.0
2022-10-01T11:10:17.641Z,8.9
2022-10-01T11:11:13.734Z,8.9
2022-10-01T11:12:17.591Z,8.9
2022-10-01T11:13:20.156Z,8.9
2022-10-01T11:14:23.420Z,8.9
2022-10-01T11:15:20.131Z,8.8
2022-10-01T11:16:16.651Z,8.8
2022-10-01T11:17:20.128Z,8.8
2022-10-01T11:18:10.173Z,8.8
2022-10-01T11:19:13.912Z,8.8
2022-10-01T11:20:10.190Z,8.7
2022-10-01T11:21:20.170Z,8.7
2022-10-01T11:22:10.173Z,8.7
2022-10-01T11:23:18.846Z,8.7
2022-10-01T11:24:13.543Z,8.7
2022-10-01T11:25:20.135Z,10.3
2022-10-01T11:26:08.890Z,10.3
2022-10-01T11:27:15.689Z,10.3
2022-10-01T11:28:20.234Z,10.3
2022-10-01T11:29:20.123Z,10.3
2022-10-01T11:30:06.587Z,9.5
2022-10-01T11:31:20.192Z,9.5
2022-10-01T11:32:10.199Z,9.5
2022-10-01T11:33:07.823Z,9.5
2022-10-01T11:34:10.186Z,9.5
2022-10-01T11:35:20.135Z,7.3
2022-10-01T11:36:14.066Z,7.3
2022-10-01T11:37:17.482Z,7.3
2022-10-01T11:38:17.682Z,7.3
2022-10-01T11:39:04.335Z,7.3
2022-10-01T11:40:13.354Z,6.8
2022-10-01T11:41:11.808Z,6.8
2022-10-01T11:42:06.954Z,6.8
2022-10-01T11:43:08.905Z,6.8
2022-10-01T11:44:05.012Z,6.8
2022-10-01T11:45:06.182Z,6.0
2022-10-01T11:46:08.795Z,6.0
2022-10-01T11:47:02.782Z,6.0
2022-10-01T11:48:07.981Z,6.0
2022-10-01T11:49:11.420Z,6.0
2022-10-01T11:50:06.254Z,7.7
2022-10-01T11:51:07.325Z,7.7
2022-10-01T11:52:11.699Z,7.7
2022-10-01T11:53:09.076Z,7.7
2022-10-01T11:54:06.330Z,7.7
2022-10-01T11:55:13.445Z,4.4
2022-10-01T11:56:09.247Z,4.4
2022-10-01T11:57:03.614Z,4.4
2022-10-01T11:58:13.617Z,4.4
2022-10-01T11:59:17.264Z,4.4
2022-10-01T12:00:07.264Z,6.4
2022-10-01T12:01:08.681Z,6.4
2022-10-01T12:02:05.903Z,6.4
2022-10-01T12:03:04.913Z,6.4
2022-10-01T12:04:13.675Z,6.4
2022-10-01T12:05:11.252Z,5.1
2022-10-01T12:06:01.346Z,5.1
2022-10-01T12:07:14.876Z,5.1
2022-10-01T12:08:05.386Z,5.1
2022-10-01T12:09:07.955Z,5.1
2022-10-01T12:10:20.130Z,5.4
2022-10-01T12:11:09.406Z,5.4
2022-10-01T12:12:06.056Z,5.4
2022-10-01T12:13:11.221Z,5.4
2022-10-01T12:14:04.994Z,5.4
2022-10-01T12:15:13.463Z,5.5
2022-10-01T12:16:10.752Z,5.5
2022-10-01T12:17:20.136Z,5.5
2022-10-01T12:18:12.182Z,5.5
2022-10-01T12:19:12.337Z,5.5
2022-10-01T12:20:02.657Z,6.5
2022-10-01T12:21:06.445Z,6.5
2022-10-01T12:22:11.550Z,6.5
2022-10-01T12:23:05.627Z,6.5
2022-10-01T12:24:05.124Z,6.5
2022-10-01T12:25:00.539Z,4.4
2022-10-01T12:26:10.185Z,4.4
2022-10-01T12:27:07.526Z,4.4
2022-10-01T12:28:08.799Z,4.4
2022-10-01T12:29:13.980Z,4.4
2022-10-01T12:30:09.872Z,4.2
2022-10-01T12:31:07.285Z,4.2
2022-10-01T12:32:15.387Z,4.2
2022-10-01T12:33:13.178Z,4.2
2022-10-01T12:34:20.150Z,4.2
2022-10-01T12:35:07.617Z,5.6
2022-10-01T12:36:17.989Z,5.6
2022-10-01T12:37:10.193Z,5.6
2022-10-01T12:38:20.140Z,5.6
2022-10-01T12:39:13.429Z,5.6
2022-10-01T12:40:13.440Z,6.1
2022-10-01T12:41:12.864Z,6.1
2022-10-01T12:42:20.139Z,6.1
2022-10-01T12:43:20.129Z,6.1
2022-10-01T12:44:17.478Z,6.1
2022-10-01T12:45:13.410Z,6.6
2022-10-01T12:46:11.235Z,6.6
2022-10-01T12:47:20.135Z,6.6
2022-10-01T12:48:13.442Z,6.6
2022-10-01T12:49:10.684Z,6.6
2022-10-01T12:50:15.280Z,5.5
2022-10-01T12:51:20.150Z,5.5
2022-10-01T12:52:11.199Z,5.5
2022-10-01T12:53:20.128Z,5.5
2022-10-01T12:54:13.614Z,5.5
2022-10-01T12:55:20.135Z,4.6
2022-10-01T12:56:12.269Z,4.6
2022-10-01T12:57:13.442Z,4.6
2022-10-01T12:58:10.173Z,4.6
2022-10-01T12:59:13.416Z,4.6
2022-10-01T13:00:09.908Z,5.3
2022-10-01T13:01:20.212Z,5.3
2022-10-01T13:02:10.234Z,5.3
2022-10-01T13:03:10.204Z,5.3
2022-10-01T13:04:10.064Z,5.3
2022-10-01T13:05:11.195Z,4.2
2022-10-01T13:06:17.705Z,4.2
2022-10-01T13:07:11.199Z,4.2
2022-10-01T13:08:00.212Z,4.2
2022-10-01T13:09:13.432Z,4.2
2022-10-01T13:10:13.461Z,3.7
2022-10-01T13:11:04.533Z,3.7
2022-10-01T13:12:11.521Z,3.7
2022-10-01T13:13:13.019Z,3.7
2022-10-01T13:14:00.957Z,3.7
2022-10-01T13:15:01.794Z,4.1
2022-10-01T13:16:08.825Z,4.1
2022-10-01T13:17:08.544Z,4.1
2022-10-01T13:18:09.011Z,4.1
2022-10-01T13:19:03.485Z,4.1
2022-10-01T13:20:07.569Z,3.9
2022-10-01T13:21:16.911Z,3.9
2022-10-01T13:22:15.315Z,3.9
2022-10-01T13:23:06.428Z,3.9